createdAt,value
2022-10-23T00:00:58.957Z,91.88
2022-10-23T00:03:40.138Z,92.58
2022-10-23T00:06:14.817Z,91.67
2022-10-23T00:08:48.938Z,92.99
2022-10-23T00:11:24.397Z,92.39
2022-10-23T00:13:59.137Z,92.58
2022-10-23T00:16:32.303Z,92.90
2022-10-23T00:19:04.698Z,92.38
2022-10-23T00:21:39.677Z,93.39
2022-10-23T00:24:12.712Z,92.33
2022-10-23T00:26:45.118Z,92.89
2022-10-23T00:29:17.426Z,93.23
2022-10-23T00:31:49.319Z,94.04
2022-10-23T00:34:21.697Z,94.51
2022-10-23T00:36:56.118Z,93.11
2022-10-23T00:39:28.599Z,93.53
2022-10-23T00:42:00.456Z,94.01
2022-10-23T00:45:05.523Z,94.15
2022-10-23T00:47:37.437Z,93.95
2022-10-23T00:50:10.546Z,93.29
2022-10-23T00:52:50.078Z,93.31
2022-10-23T00:55:24.537Z,92.39
2022-10-23T00:57:56.960Z,92.43
2022-10-23T01:00:45.620Z,90.84
2022-10-23T01:03:18.904Z,91.42
2022-10-23T01:05:56.698Z,90.95
2022-10-23T01:08:38.938Z,90.91
2022-10-23T01:11:16.376Z,90.93
2022-10-23T01:13:57.857Z,90.95
2022-10-23T01:16:37.929Z,90.16
2022-10-23T01:19:18.037Z,90.13
2022-10-23T01:21:58.956Z,89.59
2022-10-23T01:24:51.877Z,90.37
2022-10-23T01:27:30.141Z,90.05
2022-10-23T01:30:09.277Z,90.59
2022-10-23T01:32:51.017Z,90.11
2022-10-23T01:35:26.479Z,90.13
2022-10-23T01:38:04.718Z,90.40
2022-10-23T01:40:41.298Z,91.18
2022-10-23T01:43:21.298Z,90.06
2022-10-23T01:45:58.358Z,89.96
2022-10-23T01:48:33.518Z,90.36
2022-10-23T01:51:09.558Z,90.33
2022-10-23T01:53:46.876Z,90.88
2022-10-23T01:56:23.416Z,90.25
2022-10-23T01:59:02.138Z,90.41
2022-10-23T02:01:38.197Z,90.14
2022-10-23T02:04:13.977Z,89.78
2022-10-23T02:06:46.338Z,90.00
2022-10-23T02:09:18.897Z,90.05
2022-10-23T02:11:57.778Z,89.30
2022-10-23T02:14:52.439Z,89.87
2022-10-23T02:17:33.545Z,90.07
2022-10-23T02:20:17.197Z,89.90
2022-10-23T02:22:59.117Z,89.08
2022-10-23T02:25:38.404Z,89.11
2022-10-23T02:28:18.436Z,88.64
2022-10-23T02:30:53.878Z,88.30
2022-10-23T02:33:27.717Z,88.12
2022-10-23T02:36:00.376Z,88.20
2022-10-23T02:38:40.858Z,88.67
2022-10-23T02:41:41.618Z,89.81
2022-10-23T02:44:28.778Z,88.93
2022-10-23T02:47:19.538Z,89.26
2022-10-23T02:50:00.917Z,90.40
2022-10-23T02:52:40.518Z,90.85
2022-10-23T02:55:25.379Z,90.00
2022-10-23T02:58:10.659Z,90.49
2022-10-23T03:00:49.598Z,89.42
2022-10-23T03:03:30.439Z,90.21
2022-10-23T03:06:02.739Z,90.93
2022-10-23T03:08:44.878Z,91.65
2022-10-23T03:11:17.159Z,91.44
2022-10-23T03:13:49.657Z,91.65
2022-10-23T03:16:21.897Z,92.23
2022-10-23T03:18:57.057Z,92.08
2022-10-23T03:21:29.059Z,92.72
2022-10-23T03:24:01.539Z,92.63
2022-10-23T03:26:33.618Z,92.45
2022-10-23T03:29:06.218Z,93.15
2022-10-23T03:31:38.376Z,91.82
2022-10-23T03:34:15.259Z,92.72
2022-10-23T03:36:47.436Z,92.15
2022-10-23T03:39:20.657Z,92.28
2022-10-23T03:41:52.683Z,92.74
2022-10-23T03:44:25.059Z,92.87
2022-10-23T03:46:57.298Z,92.17
2022-10-23T03:49:32.538Z,91.11
2022-10-23T03:52:04.820Z,91.13
2022-10-23T03:54:37.418Z,91.69
2022-10-23T03:57:09.438Z,91.33
2022-10-23T03:59:41.937Z,91.49
2022-10-23T04:02:14.221Z,91.82
2022-10-23T04:04:51.179Z,91.80
2022-10-23T04:07:23.099Z,91.86
2022-10-23T04:09:55.239Z,92.24
2022-10-23T04:12:27.598Z,91.56
2022-10-23T04:15:00.083Z,91.91
2022-10-23T04:17:32.202Z,92.38
2022-10-23T04:20:07.406Z,91.89
2022-10-23T04:22:39.159Z,92.77
2022-10-23T04:25:27.658Z,93.75
2022-10-23T04:28:11.618Z,93.17
2022-10-23T04:30:43.621Z,93.29
2022-10-23T04:33:15.417Z,93.70
2022-10-23T04:35:50.378Z,93.93
2022-10-23T04:38:22.277Z,94.51
2022-10-23T04:40:54.318Z,94.15
2022-10-23T04:43:25.987Z,94.63
2022-10-23T04:45:58.198Z,94.90
2022-10-23T04:48:29.838Z,94.18
2022-10-23T04:51:07.317Z,94.39
2022-10-23T04:53:39.598Z,94.85
2022-10-23T04:56:16.358Z,93.96
2022-10-23T04:58:48.139Z,94.39
2022-10-23T05:01:20.397Z,94.73
2022-10-23T05:03:54.337Z,94.51
2022-10-23T05:06:29.125Z,94.79
2022-10-23T05:09:00.938Z,95.12
2022-10-23T05:11:33.217Z,95.12
2022-10-23T05:14:05.117Z,94.97
2022-10-23T05:16:42.798Z,94.90
2022-10-23T05:19:24.270Z,94.89
2022-10-23T05:22:00.117Z,94.45
2022-10-23T05:24:32.298Z,94.08
2022-10-23T05:27:04.399Z,93.74
2022-10-23T05:29:36.318Z,92.80
2022-10-23T05:32:11.257Z,94.37
2022-10-23T05:34:43.858Z,93.75
2022-10-23T05:37:20.299Z,93.96
2022-10-23T05:39:52.358Z,95.39
2022-10-23T05:42:24.298Z,94.04
2022-10-23T05:44:58.256Z,93.49
2022-10-23T05:47:31.856Z,93.34
2022-10-23T05:50:03.479Z,94.53
2022-10-23T05:52:38.317Z,94.03
2022-10-23T05:55:10.898Z,95.07
2022-10-23T05:57:43.221Z,94.68
2022-10-23T06:00:16.376Z,94.65
2022-10-23T06:02:48.759Z,94.66
2022-10-23T06:05:20.929Z,94.89
2022-10-23T06:07:56.178Z,93.98
2022-10-23T06:10:28.525Z,93.31
2022-10-23T06:13:01.079Z,93.97
2022-10-23T06:15:33.140Z,94.74
2022-10-23T06:18:05.638Z,94.57
2022-10-23T06:20:40.398Z,92.86
2022-10-23T06:23:15.517Z,93.21
2022-10-23T06:26:02.958Z,93.01
2022-10-23T06:28:35.417Z,93.35
2022-10-23T06:31:09.079Z,94.03
2022-10-23T06:33:41.967Z,94.07
2022-10-23T06:36:14.298Z,94.02
2022-10-23T06:38:49.855Z,94.51
2022-10-23T06:41:24.520Z,93.52
2022-10-23T06:43:56.919Z,93.01
2022-10-23T06:46:33.336Z,93.38
2022-10-23T06:49:05.858Z,92.63
2022-10-23T06:51:38.098Z,91.61
2022-10-23T06:54:14.737Z,92.28
2022-10-23T06:56:47.037Z,92.01
2022-10-23T06:59:19.818Z,91.91
2022-10-23T07:01:52.140Z,90.55
2022-10-23T07:04:24.598Z,90.84
2022-10-23T07:06:59.118Z,90.05
2022-10-23T07:09:34.519Z,90.37
2022-10-23T07:12:06.901Z,89.90
2022-10-23T07:14:39.457Z,90.06
2022-10-23T07:17:11.577Z,89.20
2022-10-23T07:19:43.978Z,88.24
2022-10-23T07:22:16.316Z,88.03
2022-10-23T07:24:51.717Z,87.63
2022-10-23T07:27:23.799Z,85.50
2022-10-23T07:29:56.643Z,86.24
2022-10-23T07:32:28.919Z,86.00
2022-10-23T07:35:02.454Z,85.88
2022-10-23T07:37:34.698Z,84.90
2022-10-23T07:40:12.579Z,84.01
2022-10-23T07:42:44.938Z,83.58
2022-10-23T07:45:50.919Z,84.82
2022-10-23T07:48:24.281Z,84.16
2022-10-23T07:50:57.217Z,83.61
2022-10-23T07:53:30.178Z,83.78
2022-10-23T07:56:07.717Z,84.06
2022-10-23T07:58:39.858Z,82.54
2022-10-23T08:01:20.979Z,81.70
2022-10-23T08:03:53.098Z,79.76
2022-10-23T08:06:25.799Z,79.35
2022-10-23T08:08:59.920Z,78.89
2022-10-23T08:11:38.480Z,78.44
2022-10-23T08:14:11.476Z,79.29
2022-10-23T08:16:44.220Z,79.35
2022-10-23T08:19:16.757Z,79.18
2022-10-23T08:21:49.338Z,79.82
2022-10-23T08:24:21.597Z,79.41
2022-10-23T08:26:56.918Z,79.31
2022-10-23T08:29:29.197Z,78.21
2022-10-23T08:32:01.717Z,78.34
2022-10-23T08:34:53.196Z,78.22
2022-10-23T08:37:25.846Z,78.18
2022-10-23T08:39:58.459Z,77.64
2022-10-23T08:42:33.759Z,76.18
2022-10-23T08:45:14.943Z,73.92
2022-10-23T08:47:51.638Z,69.95
2022-10-23T08:53:28.597Z,65.49
2022-10-23T08:56:05.478Z,64.49
2022-10-23T08:58:46.741Z,63.86
2022-10-23T09:01:34.858Z,61.84
2022-10-23T09:04:32.039Z,60.88
2022-10-23T09:07:13.580Z,59.97
2022-10-23T09:09:58.496Z,59.52
2022-10-23T09:12:34.339Z,59.25
2022-10-23T09:15:18.358Z,56.02
2022-10-23T09:17:59.938Z,55.96
2022-10-23T09:20:37.837Z,54.35
2022-10-23T09:23:17.999Z,54.74
2022-10-23T09:25:57.280Z,54.24
2022-10-23T09:29:22.238Z,52.99
2022-10-23T09:32:43.382Z,53.17
2022-10-23T09:35:24.859Z,52.29
2022-10-23T09:38:23.640Z,51.82
2022-10-23T09:40:56.819Z,50.07
2022-10-23T09:43:29.738Z,50.58
2022-10-23T09:46:05.597Z,49.93
2022-10-23T09:48:45.538Z,49.30
2022-10-23T09:51:22.158Z,49.19
2022-10-23T09:53:57.645Z,49.48
2022-10-23T09:56:34.179Z,47.77
2022-10-23T09:59:09.957Z,45.94
2022-10-23T10:01:51.684Z,46.44
2022-10-23T10:04:35.639Z,45.80
2022-10-23T10:07:19.198Z,46.84
2022-10-23T10:09:52.645Z,46.72
2022-10-23T10:12:42.388Z,46.92
2022-10-23T10:15:23.520Z,46.77
2022-10-23T10:18:08.478Z,45.40
2022-10-23T10:21:05.795Z,43.81
2022-10-23T10:23:49.328Z,43.98
2022-10-23T10:26:34.231Z,45.42
2022-10-23T10:29:19.870Z,44.78
2022-10-23T10:32:02.549Z,45.89
2022-10-23T10:34:43.330Z,46.97
2022-10-23T10:37:43.895Z,46.90
2022-10-23T10:40:28.066Z,46.43
2022-10-23T10:43:19.743Z,48.48
2022-10-23T10:45:56.804Z,48.35
2022-10-23T10:48:50.564Z,47.10
2022-10-23T10:51:31.665Z,47.61
2022-10-23T10:54:27.272Z,49.52
2022-10-23T10:57:02.987Z,49.29
2022-10-23T10:59:42.925Z,50.33
2022-10-23T11:02:29.263Z,53.25
2022-10-23T11:05:09.323Z,53.98
2022-10-23T11:07:46.562Z,54.64
2022-10-23T11:10:23.102Z,53.64
2022-10-23T11:12:55.729Z,52.66
2022-10-23T11:15:32.522Z,52.57
2022-10-23T11:18:10.044Z,53.46
2022-10-23T11:21:09.225Z,54.69
2022-10-23T11:24:01.169Z,54.59
2022-10-23T11:26:51.730Z,52.64
2022-10-23T11:29:47.944Z,53.34
2022-10-23T11:32:53.144Z,51.29
2022-10-23T11:35:42.096Z,52.38
2022-10-23T11:38:21.635Z,53.51
2022-10-23T11:40:57.110Z,52.67
2022-10-23T11:43:34.635Z,52.42
2022-10-23T11:46:32.914Z,52.68
2022-10-23T11:49:06.638Z,53.06
2022-10-23T11:52:05.354Z,54.23
2022-10-23T11:55:06.075Z,53.88
2022-10-23T11:57:38.277Z,54.82
2022-10-23T12:00:28.057Z,55.75
2022-10-23T12:03:25.493Z,56.30
2022-10-23T12:06:05.137Z,57.38
2022-10-23T12:08:41.876Z,56.99
2022-10-23T12:11:33.263Z,56.45
2022-10-23T12:14:05.619Z,57.09
2022-10-23T12:16:43.422Z,56.50
2022-10-23T12:19:24.197Z,57.14
2022-10-23T12:22:00.601Z,56.54
2022-10-23T12:24:47.455Z,56.08
2022-10-23T12:27:36.757Z,56.34
2022-10-23T12:30:22.874Z,58.10
2022-10-23T12:33:12.916Z,57.05
2022-10-23T12:36:12.976Z,57.47
2022-10-23T12:38:50.337Z,59.15
2022-10-23T12:41:27.763Z,59.24
2022-10-23T12:44:02.696Z,59.29
2022-10-23T12:46:39.176Z,58.93
2022-10-23T12:49:21.341Z,58.97
2022-10-23T12:52:00.060Z,58.83
2022-10-23T12:54:34.514Z,59.23
2022-10-23T12:57:24.235Z,59.64
2022-10-23T13:00:02.659Z,58.50
2022-10-23T13:02:37.829Z,58.60
2022-10-23T13:05:17.737Z,58.51
2022-10-23T13:07:52.657Z,59.41
2022-10-23T13:10:27.431Z,59.27
2022-10-23T13:13:05.899Z,58.87
2022-10-23T13:15:42.997Z,59.33
2022-10-23T13:18:32.494Z,59.40
2022-10-23T13:21:08.175Z,59.55
2022-10-23T13:23:43.816Z,59.85
2022-10-23T13:26:29.175Z,59.71
2022-10-23T13:29:08.750Z,60.43
2022-10-23T13:31:41.834Z,61.10
2022-10-23T13:34:29.175Z,60.25
2022-10-23T13:37:23.474Z,62.02
2022-10-23T13:40:08.077Z,62.10
2022-10-23T13:42:40.322Z,61.92
2022-10-23T13:45:21.850Z,61.15
2022-10-23T13:47:56.393Z,61.68
2022-10-23T13:50:29.144Z,62.37
2022-10-23T13:53:06.151Z,61.96
2022-10-23T13:55:39.733Z,61.25
2022-10-23T13:58:12.653Z,62.70
2022-10-23T14:00:46.111Z,62.66
2022-10-23T14:03:19.111Z,63.23
2022-10-23T14:05:51.670Z,62.96
2022-10-23T14:08:26.476Z,62.96
2022-10-23T14:10:58.870Z,63.03
2022-10-23T14:13:32.290Z,63.31
2022-10-23T14:16:04.890Z,63.09
2022-10-23T14:18:37.511Z,63.29
2022-10-23T14:21:11.752Z,63.11
2022-10-23T14:23:48.553Z,63.13
2022-10-23T14:26:33.133Z,63.67
2022-10-23T14:29:17.791Z,64.40
2022-10-23T14:31:53.757Z,64.22
2022-10-23T14:34:25.778Z,64.22
2022-10-23T14:37:08.038Z,65.06
2022-10-23T14:39:48.877Z,65.26
2022-10-23T14:42:22.152Z,64.52
2022-10-23T14:44:54.080Z,65.10
2022-10-23T14:47:26.451Z,64.86
2022-10-23T14:49:58.849Z,65.38
2022-10-23T14:52:31.430Z,65.55
2022-10-23T14:55:06.074Z,65.72
2022-10-23T14:57:38.250Z,65.71
2022-10-23T15:00:11.616Z,65.92
2022-10-23T15:02:44.092Z,66.39
2022-10-23T15:05:16.269Z,66.21
2022-10-23T15:07:48.627Z,66.65
2022-10-23T15:10:23.248Z,67.07
2022-10-23T15:12:55.426Z,66.55
2022-10-23T15:15:29.866Z,66.89
2022-10-23T15:18:06.926Z,67.50
2022-10-23T15:20:38.828Z,67.89
2022-10-23T15:23:11.047Z,68.26
2022-10-23T15:25:45.668Z,67.62
2022-10-23T15:28:17.870Z,69.00
2022-10-23T15:30:49.769Z,68.54
2022-10-23T15:33:22.168Z,69.29
2022-10-23T15:35:54.770Z,69.64
2022-10-23T15:38:27.515Z,69.24
2022-10-23T15:41:23.717Z,70.62
2022-10-23T15:43:55.850Z,70.04
2022-10-23T15:46:27.756Z,70.62
2022-10-23T15:49:00.336Z,70.70
2022-10-23T15:51:32.598Z,72.27
2022-10-23T15:54:04.816Z,71.22
2022-10-23T15:56:39.617Z,72.73
2022-10-23T15:59:11.955Z,72.60
2022-10-23T16:01:44.281Z,72.26
2022-10-23T16:04:33.699Z,72.39
2022-10-23T16:07:07.457Z,71.90
2022-10-23T16:09:40.036Z,72.03
2022-10-23T16:12:14.798Z,72.04
2022-10-23T16:14:47.078Z,73.15
2022-10-23T16:17:19.599Z,72.45
2022-10-23T16:19:51.964Z,72.66
2022-10-23T16:22:23.778Z,73.31
2022-10-23T16:24:55.905Z,73.50
2022-10-23T16:27:30.396Z,72.96
2022-10-23T16:30:02.537Z,73.37
2022-10-23T16:32:35.125Z,73.06
2022-10-23T16:35:09.821Z,74.21
2022-10-23T16:37:44.494Z,74.28
2022-10-23T16:40:20.036Z,75.78
2022-10-23T16:42:54.617Z,76.25
2022-10-23T16:45:27.177Z,75.54
2022-10-23T16:47:58.976Z,75.89
2022-10-23T16:50:31.272Z,75.55
2022-10-23T16:53:03.324Z,75.73
2022-10-23T16:55:35.738Z,75.91
2022-10-23T16:58:29.956Z,75.87
2022-10-23T17:01:04.156Z,75.43
2022-10-23T17:03:53.662Z,75.41
2022-10-23T17:06:29.145Z,75.91
2022-10-23T17:09:02.483Z,75.67
2022-10-23T17:11:37.820Z,75.84
2022-10-23T17:14:17.657Z,75.73
2022-10-23T17:16:52.123Z,76.91
2022-10-23T17:19:43.689Z,76.08
2022-10-23T17:22:17.616Z,77.29
2022-10-23T17:24:51.627Z,76.70
2022-10-23T17:27:26.296Z,77.26
2022-10-23T17:30:01.115Z,76.55
2022-10-23T17:32:33.264Z,76.06
2022-10-23T17:35:07.216Z,75.41
2022-10-23T17:37:39.517Z,76.56
2022-10-23T17:40:12.612Z,77.44
2022-10-23T17:43:04.632Z,76.27
2022-10-23T17:45:40.653Z,76.36
2022-10-23T17:48:12.934Z,76.40
2022-10-23T17:50:44.854Z,76.58
2022-10-23T17:53:26.332Z,76.24
2022-10-23T17:56:00.893Z,75.99
2022-10-23T17:58:33.032Z,76.26
2022-10-23T18:01:10.795Z,76.41
2022-10-23T18:03:43.272Z,76.59
2022-10-23T18:06:17.216Z,75.15
2022-10-23T18:08:49.638Z,75.07
2022-10-23T18:11:23.435Z,75.65
2022-10-23T18:13:55.681Z,75.13
2022-10-23T18:16:30.755Z,75.17
2022-10-23T18:19:03.379Z,74.60
2022-10-23T18:21:36.074Z,74.83
2022-10-23T18:24:08.681Z,74.79
2022-10-23T18:26:40.773Z,74.49
2022-10-23T18:29:15.195Z,75.36
2022-10-23T18:31:50.914Z,74.89
2022-10-23T18:34:25.334Z,75.06
2022-10-23T18:36:58.195Z,75.13
2022-10-23T18:39:30.556Z,74.61
2022-10-23T18:42:02.315Z,75.23
2022-10-23T18:44:34.154Z,75.42
2022-10-23T18:47:09.486Z,74.83
2022-10-23T18:49:41.454Z,74.36
2022-10-23T18:52:13.220Z,74.36
2022-10-23T18:54:45.220Z,74.55
2022-10-23T18:57:16.893Z,74.47
2022-10-23T18:59:50.514Z,74.08
2022-10-23T19:02:24.927Z,74.04
2022-10-23T19:04:57.220Z,74.46
2022-10-23T19:07:29.153Z,73.93
2022-10-23T19:10:00.880Z,73.77
2022-10-23T19:12:32.594Z,74.19
2022-10-23T19:15:04.417Z,74.60
2022-10-23T19:17:39.286Z,74.69
2022-10-23T19:20:17.293Z,74.52
2022-10-23T19:22:52.375Z,74.00
2022-10-23T19:25:28.330Z,74.39
2022-10-23T19:28:01.738Z,74.65
2022-10-23T19:30:40.975Z,74.82
2022-10-23T19:33:15.231Z,74.50
2022-10-23T19:35:47.214Z,74.61
2022-10-23T19:38:18.911Z,74.70
2022-10-23T19:40:51.370Z,74.00
2022-10-23T19:43:22.850Z,74.82
2022-10-23T19:45:54.940Z,73.95
2022-10-23T19:48:29.090Z,74.49
2022-10-23T19:51:01.090Z,73.82
2022-10-23T19:53:33.938Z,73.98
2022-10-23T19:56:07.997Z,74.12
2022-10-23T19:58:40.064Z,73.07
2022-10-23T20:01:14.815Z,72.58
2022-10-23T20:03:50.225Z,72.47
2022-10-23T20:06:24.528Z,72.70
2022-10-23T20:08:56.923Z,73.08
2022-10-23T20:11:30.845Z,72.38
2022-10-23T20:14:03.370Z,72.49
2022-10-23T20:16:37.538Z,72.50
2022-10-23T20:22:10.185Z,72.38
2022-10-23T20:24:42.526Z,72.50
2022-10-23T20:27:14.946Z,71.87
2022-10-23T20:29:46.565Z,72.29
2022-10-23T20:32:18.907Z,72.88
2022-10-23T20:34:53.046Z,72.39
2022-10-23T20:37:24.825Z,72.17
2022-10-23T20:39:58.248Z,72.79
2022-10-23T20:42:30.066Z,72.36
2022-10-23T20:45:01.633Z,72.30
2022-10-23T20:47:33.545Z,72.61
2022-10-23T20:50:08.784Z,72.86
2022-10-23T20:52:40.727Z,73.36
2022-10-23T20:55:13.205Z,72.48
2022-10-23T20:57:59.029Z,73.00
2022-10-23T21:00:30.644Z,73.90
2022-10-23T21:03:04.384Z,74.22
2022-10-23T21:05:38.486Z,74.33
2022-10-23T21:08:10.283Z,74.40
2022-10-23T21:10:48.507Z,75.06
2022-10-23T21:13:20.363Z,74.83
2022-10-23T21:15:51.945Z,74.62
2022-10-23T21:18:27.361Z,75.12
2022-10-23T21:21:08.505Z,74.78
2022-10-23T21:23:41.172Z,75.74
2022-10-23T21:26:12.989Z,75.54
2022-10-23T21:28:55.823Z,75.69
2022-10-23T21:31:32.696Z,75.36
2022-10-23T21:34:04.856Z,75.40
2022-10-23T21:36:48.503Z,75.82
2022-10-23T21:39:31.245Z,75.92
2022-10-23T21:42:02.864Z,76.11
2022-10-23T21:44:34.733Z,75.68
2022-10-23T21:47:06.366Z,76.18
2022-10-23T21:49:38.288Z,76.63
2022-10-23T21:52:15.037Z,76.94
2022-10-23T21:54:49.627Z,76.51
2022-10-23T21:57:21.226Z,76.55
2022-10-23T21:59:53.064Z,75.23
2022-10-23T22:02:24.659Z,75.01
2022-10-23T22:04:56.605Z,74.84
2022-10-23T22:07:31.108Z,75.59
2022-10-23T22:10:03.445Z,76.42
2022-10-23T22:12:35.464Z,76.23
2022-10-23T22:15:08.686Z,74.80
2022-10-23T22:17:40.712Z,75.03
2022-10-23T22:20:13.546Z,74.54
2022-10-23T22:22:48.125Z,73.80
2022-10-23T22:25:20.545Z,73.45
2022-10-23T22:27:52.604Z,74.08
2022-10-23T22:30:24.726Z,74.96
2022-10-23T22:32:56.565Z,75.39
2022-10-23T22:35:28.865Z,76.17
2022-10-23T22:38:04.765Z,76.33
2022-10-23T22:40:45.633Z,77.83
2022-10-23T22:43:18.411Z,77.92
2022-10-23T22:45:50.525Z,78.09
2022-10-23T22:48:22.325Z,78.52
2022-10-23T22:50:57.065Z,78.44
2022-10-23T22:53:31.646Z,78.36
2022-10-23T22:56:03.584Z,78.69
2022-10-23T22:58:35.125Z,79.13
2022-10-23T23:01:10.902Z,80.63
2022-10-23T23:03:42.526Z,81.91
2022-10-23T23:06:15.185Z,83.00
2022-10-23T23:08:50.945Z,84.04
2022-10-23T23:11:24.793Z,83.55
2022-10-23T23:13:56.490Z,84.69
2022-10-23T23:16:31.725Z,86.02
2022-10-23T23:19:05.068Z,87.35
2022-10-23T23:21:36.945Z,87.51
2022-10-23T23:24:11.284Z,87.14
2022-10-23T23:26:43.255Z,87.92
2022-10-23T23:29:15.787Z,88.81
2022-10-23T23:32:29.526Z,89.66
2022-10-23T23:35:02.571Z,89.17
2022-10-23T23:37:34.645Z,92.14
2022-10-23T23:40:09.966Z,91.92
2022-10-23T23:42:42.043Z,91.45
2022-10-23T23:45:15.134Z,90.59
2022-10-23T23:47:47.274Z,89.77
2022-10-23T23:50:19.366Z,91.83
2022-10-23T23:52:51.205Z,91.77
2022-10-23T23:55:25.446Z,90.92
2022-10-23T23:57:57.226Z,91.26
